Jackson Hill, Indiana
Current Conditions -  °F | °C
As of 8:53 AM on Sunday 25 Jan 2015 (Local Time) from KHUF Reporting Station
Overcast Overcast  
Wind Chill: 32°   Ceiling: 7500
Heat Index: 36°   Visibility: 10mi
Dew Point: 31°   Wind: 5mph
Humidity: 82%   Direction: 150°SSE
Pressure: 29.64"   Gusts: NA
Location:  39.2094°N, 87.3438°W
Report Text: KHUF 251353Z AUTO 15004KT 10SM OVC075 02/M01 A2964 RMK AO2 SLP041 T00221006
Loading
Personal Weather Stations






























Interactive Weather Map New forecast layout! Learn more

10-Day Weather Forecast

Advertisements
Track Severe Weather on mobile